createdAt,value
2023-11-17T00:00:03.543Z,7.64
2023-11-17T00:01:03.501Z,7.57
2023-11-17T00:02:03.524Z,7.74
2023-11-17T00:03:03.653Z,7.74
2023-11-17T00:04:03.666Z,7.77
2023-11-17T00:05:03.505Z,7.71
2023-11-17T00:06:03.485Z,7.74
2023-11-17T00:07:03.500Z,7.78
2023-11-17T00:08:03.588Z,7.81
2023-11-17T00:09:03.434Z,7.74
2023-11-17T00:10:03.506Z,7.74
2023-11-17T00:11:03.424Z,7.80
2023-11-17T00:12:03.449Z,7.64
2023-11-17T00:13:03.437Z,7.55
2023-11-17T00:14:03.454Z,7.74
2023-11-17T00:15:03.455Z,7.60
2023-11-17T00:16:03.467Z,7.64
2023-11-17T00:17:03.489Z,7.50
2023-11-17T00:18:03.430Z,7.58
2023-11-17T00:19:03.412Z,7.57
2023-11-17T00:20:03.417Z,7.62
2023-11-17T00:21:03.394Z,7.55
2023-11-17T00:22:03.402Z,7.50
2023-11-17T00:23:03.415Z,7.55
2023-11-17T00:24:03.392Z,7.50
2023-11-17T00:25:03.431Z,7.57
2023-11-17T00:26:03.384Z,7.36
2023-11-17T00:27:03.346Z,7.28
2023-11-17T00:28:03.399Z,7.33
2023-11-17T00:29:03.352Z,7.33
2023-11-17T00:30:03.370Z,7.47
2023-11-17T00:31:03.403Z,7.50
2023-11-17T00:32:03.354Z,7.55
2023-11-17T00:33:03.358Z,7.54
2023-11-17T00:34:03.432Z,7.50
2023-11-17T00:35:03.390Z,7.40
2023-11-17T00:36:03.324Z,7.28
2023-11-17T00:37:04.419Z,7.34
2023-11-17T00:38:03.301Z,7.31
2023-11-17T00:39:03.309Z,7.28
2023-11-17T00:40:03.371Z,7.33
2023-11-17T00:41:05.749Z,7.28
2023-11-17T00:42:03.269Z,7.31
2023-11-17T00:43:03.269Z,7.24
2023-11-17T00:44:03.266Z,7.24
2023-11-17T00:45:03.254Z,7.34
2023-11-17T00:46:03.351Z,7.28
2023-11-17T00:47:03.326Z,7.06
2023-11-17T00:48:03.283Z,7.31
2023-11-17T00:49:03.339Z,7.22
2023-11-17T00:50:03.227Z,7.11
2023-11-17T00:51:03.255Z,7.21
2023-11-17T00:52:03.278Z,7.16
2023-11-17T00:53:03.227Z,7.29
2023-11-17T00:54:03.253Z,7.16
2023-11-17T00:55:03.291Z,7.25
2023-11-17T00:56:03.223Z,7.25
2023-11-17T00:57:03.199Z,7.22
2023-11-17T00:58:03.282Z,7.21
2023-11-17T00:59:03.240Z,7.25
2023-11-17T01:00:03.198Z,7.18
2023-11-17T01:01:03.236Z,7.08
2023-11-17T01:02:03.236Z,7.26
2023-11-17T01:03:03.204Z,7.18
2023-11-17T01:04:03.202Z,7.26
2023-11-17T01:05:03.176Z,7.21
2023-11-17T01:06:03.179Z,7.29
2023-11-17T01:07:03.202Z,7.31
2023-11-17T01:08:03.113Z,7.34
2023-11-17T01:09:03.153Z,7.39
2023-11-17T01:10:03.192Z,7.37
2023-11-17T01:11:03.107Z,7.44
2023-11-17T01:12:03.146Z,7.39
2023-11-17T01:13:03.220Z,7.31
2023-11-17T01:14:03.093Z,7.33
2023-11-17T01:15:03.137Z,7.31
2023-11-17T01:16:03.121Z,7.25
2023-11-17T01:17:03.160Z,7.29
2023-11-17T01:18:03.143Z,7.26
2023-11-17T01:19:03.098Z,7.25
2023-11-17T01:20:03.103Z,7.25
2023-11-17T01:21:03.113Z,7.19
2023-11-17T01:22:03.081Z,7.22
2023-11-17T01:23:03.082Z,7.22
2023-11-17T01:24:03.045Z,7.16
2023-11-17T01:25:03.130Z,7.24
2023-11-17T01:26:03.056Z,7.19
2023-11-17T01:27:03.064Z,7.22
2023-11-17T01:28:03.051Z,7.07
2023-11-17T01:29:03.049Z,7.24
2023-11-17T01:30:03.046Z,7.22
2023-11-17T01:31:03.046Z,7.29
2023-11-17T01:32:03.004Z,7.08
2023-11-17T01:33:03.080Z,7.19
2023-11-17T01:34:04.059Z,7.11
2023-11-17T01:35:03.038Z,7.19
2023-11-17T01:36:03.002Z,7.16
2023-11-17T01:37:03.046Z,7.24
2023-11-17T01:38:02.993Z,7.22
2023-11-17T01:39:03.003Z,7.06
2023-11-17T01:40:03.019Z,7.22
2023-11-17T01:41:02.968Z,7.18
2023-11-17T01:42:02.972Z,7.29
2023-11-17T01:43:02.992Z,7.36
2023-11-17T01:44:02.949Z,7.26
2023-11-17T01:45:03.046Z,7.24
2023-11-17T01:46:03.035Z,7.37
2023-11-17T01:47:03.088Z,7.37
2023-11-17T01:48:02.988Z,7.37
2023-11-17T01:49:02.949Z,7.44
2023-11-17T01:50:02.936Z,7.36
2023-11-17T01:51:04.122Z,7.44
2023-11-17T01:52:02.950Z,7.34
2023-11-17T01:53:05.454Z,7.46
2023-11-17T01:54:02.916Z,7.46
2023-11-17T01:55:02.923Z,7.50
2023-11-17T01:56:02.902Z,7.46
2023-11-17T01:57:02.867Z,7.49
2023-11-17T01:58:02.995Z,7.50
2023-11-17T01:59:02.865Z,7.49
2023-11-17T02:00:02.891Z,7.64
2023-11-17T02:01:03.119Z,7.69
2023-11-17T02:02:02.917Z,7.68
2023-11-17T02:03:03.041Z,7.84
2023-11-17T02:04:02.898Z,7.69
2023-11-17T02:05:02.892Z,7.83
2023-11-17T02:06:02.836Z,7.84
2023-11-17T02:07:02.860Z,7.76
2023-11-17T02:08:02.848Z,7.76
2023-11-17T02:09:02.829Z,7.74
2023-11-17T02:10:02.913Z,7.62
2023-11-17T02:11:02.827Z,7.73
2023-11-17T02:12:02.803Z,7.66
2023-11-17T02:13:02.822Z,7.60
2023-11-17T02:14:02.823Z,7.49
2023-11-17T02:15:02.815Z,7.55
2023-11-17T02:16:02.963Z,7.54
2023-11-17T02:17:02.829Z,7.54
2023-11-17T02:18:02.805Z,7.57
2023-11-17T02:19:02.815Z,7.60
2023-11-17T02:20:02.736Z,7.50
2023-11-17T02:21:02.741Z,7.47
2023-11-17T02:22:02.816Z,7.62
2023-11-17T02:23:02.722Z,7.55
2023-11-17T02:24:02.756Z,7.58
2023-11-17T02:25:02.933Z,7.47
2023-11-17T02:26:02.882Z,7.42
2023-11-17T02:27:02.770Z,7.55
2023-11-17T02:28:02.797Z,7.60
2023-11-17T02:29:02.788Z,7.57
2023-11-17T02:30:02.689Z,7.52
2023-11-17T02:31:02.870Z,7.62
2023-11-17T02:32:02.675Z,7.52
2023-11-17T02:33:02.773Z,7.60
2023-11-17T02:34:02.768Z,7.58
2023-11-17T02:35:02.797Z,7.61
2023-11-17T02:36:02.714Z,7.58
2023-11-17T02:37:02.734Z,7.60
2023-11-17T02:38:02.717Z,7.54
2023-11-17T02:39:02.642Z,7.52
2023-11-17T02:40:02.758Z,7.58
2023-11-17T02:41:02.631Z,7.54
2023-11-17T02:42:02.684Z,7.54
2023-11-17T02:43:02.660Z,7.55
2023-11-17T02:44:02.640Z,7.64
2023-11-17T02:45:02.645Z,7.58
2023-11-17T02:46:02.740Z,7.52
2023-11-17T02:47:02.703Z,7.57
2023-11-17T02:48:02.721Z,7.57
2023-11-17T02:49:02.642Z,7.57
2023-11-17T02:50:02.635Z,7.60
2023-11-17T02:51:02.635Z,7.55
2023-11-17T02:52:02.653Z,7.46
2023-11-17T02:53:02.643Z,7.55
2023-11-17T02:54:02.649Z,7.49
2023-11-17T02:55:02.687Z,7.46
2023-11-17T02:56:02.577Z,7.49
2023-11-17T02:57:02.591Z,7.43
2023-11-17T02:58:02.619Z,7.40
2023-11-17T02:59:02.544Z,7.54
2023-11-17T03:00:02.550Z,7.58
2023-11-17T03:01:02.663Z,7.50
2023-11-17T03:02:02.618Z,7.54
2023-11-17T03:03:02.620Z,7.52
2023-11-17T03:04:02.646Z,7.55
2023-11-17T03:05:02.540Z,7.57
2023-11-17T03:06:02.548Z,7.64
2023-11-17T03:07:02.556Z,7.55
2023-11-17T03:08:02.576Z,7.49
2023-11-17T03:09:02.543Z,7.54
2023-11-17T03:10:02.547Z,7.58
2023-11-17T03:11:02.648Z,7.50
2023-11-17T03:12:02.515Z,7.57
2023-11-17T03:13:02.535Z,7.60
2023-11-17T03:14:02.500Z,7.62
2023-11-17T03:15:02.478Z,7.54
2023-11-17T03:16:02.552Z,7.61
2023-11-17T03:17:02.627Z,7.55
2023-11-17T03:18:02.499Z,7.50
2023-11-17T03:19:02.496Z,7.46
2023-11-17T03:20:02.464Z,7.49
2023-11-17T03:21:02.441Z,7.42
2023-11-17T03:22:02.481Z,7.64
2023-11-17T03:23:02.480Z,7.60
2023-11-17T03:24:02.428Z,7.46
2023-11-17T03:25:02.475Z,7.49
2023-11-17T03:26:02.410Z,7.43
2023-11-17T03:27:03.431Z,7.39
2023-11-17T03:28:02.446Z,7.42
2023-11-17T03:29:02.425Z,7.29
2023-11-17T03:30:02.404Z,7.21
2023-11-17T03:31:02.414Z,7.28
2023-11-17T03:32:02.533Z,7.28
2023-11-17T03:33:02.538Z,7.25
2023-11-17T03:34:02.430Z,7.21
2023-11-17T03:35:02.393Z,7.13
2023-11-17T03:36:02.346Z,7.00
2023-11-17T03:37:02.466Z,7.24
2023-11-17T03:38:02.410Z,7.18
2023-11-17T03:39:02.344Z,7.08
2023-11-17T03:40:02.396Z,7.07
2023-11-17T03:41:02.365Z,7.04
2023-11-17T03:42:02.389Z,7.11
2023-11-17T03:43:02.388Z,7.04
2023-11-17T03:44:02.345Z,7.07
2023-11-17T03:45:02.326Z,6.93
2023-11-17T03:46:02.399Z,7.10
2023-11-17T03:47:02.409Z,6.93
2023-11-17T03:48:02.383Z,6.99
2023-11-17T03:49:02.365Z,6.92
2023-11-17T03:50:02.316Z,6.79
2023-11-17T03:51:02.324Z,6.88
2023-11-17T03:52:02.340Z,6.88
2023-11-17T03:53:02.302Z,7.00
2023-11-17T03:54:03.291Z,6.96
2023-11-17T03:55:02.344Z,7.00
2023-11-17T03:56:02.265Z,6.89
2023-11-17T03:57:02.286Z,6.99
2023-11-17T03:58:02.274Z,6.85
2023-11-17T03:59:02.276Z,6.78
2023-11-17T04:00:02.248Z,6.79
2023-11-17T04:01:02.305Z,6.91
2023-11-17T04:02:02.317Z,6.82
2023-11-17T04:03:02.391Z,6.88
2023-11-17T04:04:02.290Z,6.89
2023-11-17T04:05:02.227Z,6.85
2023-11-17T04:06:02.228Z,6.83
2023-11-17T04:07:02.237Z,6.88
2023-11-17T04:08:02.194Z,6.74
2023-11-17T04:09:02.239Z,6.79
2023-11-17T04:10:02.301Z,6.81
2023-11-17T04:11:02.220Z,6.70
2023-11-17T04:12:02.164Z,6.56
2023-11-17T04:13:02.256Z,6.67
2023-11-17T04:14:02.188Z,6.49
2023-11-17T04:15:03.664Z,6.31
2023-11-17T04:16:02.320Z,6.40
2023-11-17T04:17:02.277Z,6.61
2023-11-17T04:18:02.185Z,6.64
2023-11-17T04:19:02.187Z,6.45
2023-11-17T04:20:02.167Z,6.40
2023-11-17T04:21:02.168Z,6.42
2023-11-17T04:22:02.163Z,6.55
2023-11-17T04:23:02.150Z,6.43
2023-11-17T04:24:02.135Z,6.35
2023-11-17T04:25:02.158Z,6.53
2023-11-17T04:26:02.123Z,6.60
2023-11-17T04:27:02.126Z,6.64
2023-11-17T04:28:02.148Z,6.63
2023-11-17T04:29:02.144Z,6.63
2023-11-17T04:30:02.099Z,6.64
2023-11-17T04:31:02.116Z,6.57
2023-11-17T04:32:02.096Z,6.63
2023-11-17T04:33:02.102Z,6.61
2023-11-17T04:34:02.134Z,6.52
2023-11-17T04:35:02.101Z,6.53
2023-11-17T04:36:02.089Z,6.57
2023-11-17T04:37:02.108Z,6.67
2023-11-17T04:38:02.078Z,6.46
2023-11-17T04:39:02.115Z,6.68
2023-11-17T04:40:02.114Z,6.61
2023-11-17T04:41:02.053Z,6.70
2023-11-17T04:42:02.069Z,6.78
2023-11-17T04:43:02.047Z,6.74
2023-11-17T04:44:02.045Z,6.63
2023-11-17T04:45:02.008Z,6.68
2023-11-17T04:46:02.092Z,6.52
2023-11-17T04:47:02.074Z,6.50
2023-11-17T04:48:02.047Z,6.43
2023-11-17T04:49:02.048Z,6.49
2023-11-17T04:50:01.995Z,6.37
2023-11-17T04:51:02.007Z,6.32
2023-11-17T04:52:01.996Z,6.27
2023-11-17T04:53:01.996Z,6.32
2023-11-17T04:54:02.025Z,6.32
2023-11-17T04:55:02.020Z,6.27
2023-11-17T04:56:01.985Z,6.27
2023-11-17T04:57:02.024Z,6.27
2023-11-17T04:58:01.981Z,6.19
2023-11-17T04:59:01.958Z,6.03
2023-11-17T05:00:01.980Z,6.19
2023-11-17T05:01:02.038Z,6.25
2023-11-17T05:02:01.987Z,6.21
2023-11-17T05:03:02.038Z,6.19
2023-11-17T05:04:02.021Z,6.09
2023-11-17T05:05:01.970Z,6.00
2023-11-17T05:06:01.928Z,5.95
2023-11-17T05:07:01.977Z,5.93
2023-11-17T05:08:01.923Z,5.98
2023-11-17T05:09:01.900Z,5.85
2023-11-17T05:10:02.018Z,5.84
2023-11-17T05:11:01.905Z,5.87
2023-11-17T05:12:01.915Z,5.85
2023-11-17T05:13:01.951Z,5.85
2023-11-17T05:14:01.906Z,5.75
2023-11-17T05:15:01.923Z,5.55
2023-11-17T05:16:01.944Z,5.72
2023-11-17T05:17:01.911Z,5.61
2023-11-17T05:18:01.942Z,5.57
2023-11-17T05:19:01.893Z,5.51
2023-11-17T05:20:01.883Z,5.48
2023-11-17T05:21:01.891Z,5.48
2023-11-17T05:22:01.902Z,5.43
2023-11-17T05:23:02.860Z,5.41
2023-11-17T05:24:01.820Z,5.47
2023-11-17T05:25:01.905Z,5.37
2023-11-17T05:26:01.833Z,5.21
2023-11-17T05:27:01.837Z,5.16
2023-11-17T05:28:01.876Z,5.11
2023-11-17T05:29:01.828Z,5.15
2023-11-17T05:30:01.860Z,5.09
2023-11-17T05:31:01.905Z,5.18
2023-11-17T05:32:01.914Z,5.34
2023-11-17T05:33:01.821Z,5.34
2023-11-17T05:34:01.847Z,5.43
2023-11-17T05:35:01.851Z,5.25
2023-11-17T05:36:01.778Z,5.33
2023-11-17T05:37:01.815Z,5.30
2023-11-17T05:38:01.791Z,5.39
2023-11-17T05:39:01.776Z,5.33
2023-11-17T05:40:01.922Z,5.36
2023-11-17T05:41:01.773Z,5.43
2023-11-17T05:42:01.787Z,5.41
2023-11-17T05:43:01.793Z,5.41
2023-11-17T05:44:01.795Z,5.39
2023-11-17T05:45:01.797Z,5.36
2023-11-17T05:46:01.949Z,5.51
2023-11-17T05:47:01.837Z,5.48
2023-11-17T05:48:01.777Z,5.50
2023-11-17T05:49:01.736Z,5.65
2023-11-17T05:50:01.771Z,5.55
2023-11-17T05:51:01.728Z,5.61
2023-11-17T05:52:01.741Z,5.54
2023-11-17T05:53:01.753Z,5.72
2023-11-17T05:54:01.712Z,5.67
2023-11-17T05:55:01.736Z,5.82
2023-11-17T05:56:01.704Z,5.90
2023-11-17T05:57:01.681Z,5.82
2023-11-17T05:58:01.699Z,5.87
2023-11-17T05:59:01.918Z,5.59
2023-11-17T06:00:01.703Z,5.57
2023-11-17T06:01:01.695Z,5.67
2023-11-17T06:02:01.783Z,5.76
2023-11-17T06:03:01.819Z,5.84
2023-11-17T06:04:01.737Z,5.87
2023-11-17T06:05:01.856Z,5.76
2023-11-17T06:06:01.683Z,5.77
2023-11-17T06:07:01.704Z,5.76
2023-11-17T06:08:01.639Z,5.66
2023-11-17T06:09:01.648Z,5.80
2023-11-17T06:10:01.746Z,5.77
2023-11-17T06:11:01.653Z,5.82
2023-11-17T06:12:01.641Z,5.93
2023-11-17T06:13:01.652Z,5.77
2023-11-17T06:14:01.628Z,5.97
2023-11-17T06:15:01.631Z,5.97
2023-11-17T06:16:01.670Z,6.02
2023-11-17T06:17:01.709Z,6.12
2023-11-17T06:18:01.647Z,6.06
2023-11-17T06:19:01.632Z,6.02
2023-11-17T06:20:01.609Z,6.02
2023-11-17T06:21:01.621Z,5.97
2023-11-17T06:22:01.634Z,5.98
2023-11-17T06:23:01.648Z,6.00
2023-11-17T06:24:01.559Z,5.93
2023-11-17T06:25:01.657Z,5.97
2023-11-17T06:26:01.587Z,5.79
2023-11-17T06:27:01.585Z,5.69
2023-11-17T06:28:01.613Z,5.76
2023-11-17T06:29:02.805Z,5.75
2023-11-17T06:30:02.580Z,5.65
2023-11-17T06:31:01.577Z,5.61
2023-11-17T06:32:01.553Z,5.52
2023-11-17T06:33:01.609Z,5.47
2023-11-17T06:34:01.618Z,5.67
2023-11-17T06:35:01.543Z,5.66
2023-11-17T06:36:01.528Z,5.72
2023-11-17T06:37:01.530Z,5.62
2023-11-17T06:38:01.541Z,5.73
2023-11-17T06:39:01.531Z,5.69
2023-11-17T06:40:01.553Z,5.75
2023-11-17T06:41:01.528Z,5.76
2023-11-17T06:42:01.503Z,5.67
2023-11-17T06:43:01.552Z,5.66
2023-11-17T06:44:01.493Z,5.69
2023-11-17T06:45:01.515Z,5.79
2023-11-17T06:46:01.575Z,5.70
2023-11-17T06:47:01.675Z,5.70
2023-11-17T06:48:01.569Z,5.47
2023-11-17T06:49:01.600Z,5.50
2023-11-17T06:50:01.502Z,5.54
2023-11-17T06:51:01.604Z,5.55
2023-11-17T06:52:01.465Z,5.48
2023-11-17T06:53:01.480Z,5.61
2023-11-17T06:54:01.446Z,5.72
2023-11-17T06:55:02.502Z,5.90
2023-11-17T06:56:01.489Z,5.82
2023-11-17T06:57:01.585Z,5.91
2023-11-17T06:58:01.479Z,5.98
2023-11-17T06:59:01.443Z,6.02
2023-11-17T07:00:01.419Z,5.97
2023-11-17T07:01:01.493Z,6.02
2023-11-17T07:02:01.492Z,5.94
2023-11-17T07:03:01.521Z,5.87
2023-11-17T07:04:01.469Z,5.95
2023-11-17T07:05:01.403Z,5.97
2023-11-17T07:06:02.515Z,6.02
2023-11-17T07:07:01.417Z,6.18
2023-11-17T07:08:01.393Z,6.11
2023-11-17T07:09:01.386Z,6.16
2023-11-17T07:10:01.442Z,6.12
2023-11-17T07:11:01.413Z,6.03
2023-11-17T07:12:01.388Z,6.13
2023-11-17T07:13:01.426Z,6.16
2023-11-17T07:14:01.370Z,6.13
2023-11-17T07:15:01.349Z,6.28
2023-11-17T07:16:01.383Z,6.34
2023-11-17T07:17:01.412Z,6.31
2023-11-17T07:18:01.408Z,6.31
2023-11-17T07:19:01.365Z,6.30
2023-11-17T07:20:01.323Z,6.27
2023-11-17T07:21:01.315Z,6.19
2023-11-17T07:22:01.473Z,6.28
2023-11-17T07:23:01.323Z,6.28
2023-11-17T07:24:01.313Z,6.35
2023-11-17T07:25:01.350Z,6.35
2023-11-17T07:26:01.300Z,6.32
2023-11-17T07:27:01.305Z,6.46
2023-11-17T07:28:01.295Z,6.42
2023-11-17T07:29:01.309Z,6.55
2023-11-17T07:30:01.321Z,6.64
2023-11-17T07:31:01.328Z,6.68
2023-11-17T07:32:01.339Z,6.57
2023-11-17T07:33:01.305Z,6.63
2023-11-17T07:34:01.283Z,6.73
2023-11-17T07:35:01.255Z,6.70
2023-11-17T07:36:01.237Z,6.78
2023-11-17T07:37:01.331Z,6.75
2023-11-17T07:38:01.335Z,6.63
2023-11-17T07:39:01.255Z,6.55
2023-11-17T07:40:01.299Z,6.43
2023-11-17T07:41:01.235Z,6.49
2023-11-17T07:42:01.247Z,6.42
2023-11-17T07:43:01.254Z,6.63
2023-11-17T07:44:01.207Z,6.78
2023-11-17T07:45:01.204Z,6.55
2023-11-17T07:46:01.276Z,6.50
2023-11-17T07:47:01.284Z,6.35
2023-11-17T07:48:01.323Z,6.35
2023-11-17T07:49:01.272Z,6.61
2023-11-17T07:50:01.220Z,6.81
2023-11-17T07:51:01.212Z,6.75
2023-11-17T07:52:01.246Z,6.65
2023-11-17T07:53:01.189Z,6.47
2023-11-17T07:54:01.264Z,6.50
2023-11-17T07:55:01.218Z,6.71
2023-11-17T07:56:01.178Z,6.83
2023-11-17T07:57:01.169Z,6.89
2023-11-17T07:58:01.184Z,6.83
2023-11-17T07:59:01.136Z,6.88
2023-11-17T08:00:01.165Z,6.96
2023-11-17T08:01:01.179Z,6.86
2023-11-17T08:02:01.132Z,6.92
2023-11-17T08:03:01.160Z,6.86
2023-11-17T08:04:01.225Z,7.04
2023-11-17T08:05:01.191Z,7.06
2023-11-17T08:06:01.118Z,7.10
2023-11-17T08:07:01.122Z,7.10
2023-11-17T08:08:01.153Z,7.06
2023-11-17T08:09:01.115Z,7.03
2023-11-17T08:10:01.270Z,6.96
2023-11-17T08:11:01.074Z,7.03
2023-11-17T08:12:01.095Z,6.91
2023-11-17T08:13:01.134Z,6.99
2023-11-17T08:14:01.101Z,7.04
2023-11-17T08:15:01.075Z,6.96
2023-11-17T08:16:01.057Z,6.97
2023-11-17T08:17:01.102Z,7.03
2023-11-17T08:18:01.160Z,7.07
2023-11-17T08:19:10.572Z,7.10
2023-11-17T08:20:03.095Z,7.22
2023-11-17T08:21:01.061Z,7.18
2023-11-17T08:22:01.042Z,7.11
2023-11-17T08:23:01.048Z,7.28
2023-11-17T08:24:01.021Z,7.25
2023-11-17T08:25:01.060Z,7.24
2023-11-17T08:26:02.153Z,7.44
2023-11-17T08:27:00.989Z,7.47
2023-11-17T08:28:01.025Z,7.50
2023-11-17T08:29:01.022Z,7.57
2023-11-17T08:30:01.007Z,7.57
2023-11-17T08:31:01.004Z,7.60
2023-11-17T08:32:01.067Z,7.61
2023-11-17T08:33:01.054Z,7.73
2023-11-17T08:34:00.989Z,7.73
2023-11-17T08:35:00.968Z,7.78
2023-11-17T08:36:00.960Z,7.83
2023-11-17T08:37:01.000Z,7.73
2023-11-17T08:38:00.987Z,7.81
2023-11-17T08:39:00.929Z,7.95
2023-11-17T08:40:00.946Z,7.80
2023-11-17T08:41:00.945Z,7.87
2023-11-17T08:42:01.024Z,7.88
2023-11-17T08:43:00.980Z,7.96
2023-11-17T08:44:00.962Z,7.91
2023-11-17T08:45:00.911Z,7.92
2023-11-17T08:46:01.033Z,7.95
2023-11-17T08:47:00.948Z,7.98
2023-11-17T08:48:00.992Z,8.09
2023-11-17T08:49:00.909Z,7.88
2023-11-17T08:50:03.145Z,8.05
2023-11-17T08:51:01.888Z,7.96
2023-11-17T08:52:00.921Z,8.01
2023-11-17T08:53:00.853Z,8.13
2023-11-17T08:54:00.861Z,8.10
2023-11-17T08:55:00.885Z,8.04
2023-11-17T08:56:00.874Z,8.09
2023-11-17T08:57:00.863Z,8.14
2023-11-17T08:58:00.958Z,8.10
2023-11-17T08:59:00.865Z,8.17
2023-11-17T09:00:00.818Z,8.34
2023-11-17T09:01:00.956Z,8.35
2023-11-17T09:02:00.879Z,8.23
2023-11-17T09:03:00.875Z,8.34
2023-11-17T09:04:00.903Z,8.46
2023-11-17T09:05:00.828Z,8.47
2023-11-17T09:06:00.800Z,8.60
2023-11-17T09:07:00.812Z,8.63
2023-11-17T09:08:00.800Z,8.70
2023-11-17T09:09:00.802Z,8.75
2023-11-17T09:10:00.811Z,8.78
2023-11-17T09:11:00.809Z,8.83
2023-11-17T09:12:01.644Z,8.89
2023-11-17T09:13:00.828Z,8.83
2023-11-17T09:14:00.865Z,8.89
2023-11-17T09:15:00.751Z,8.90
2023-11-17T09:16:00.844Z,8.93
2023-11-17T09:17:00.781Z,8.95
2023-11-17T09:18:00.747Z,8.92
2023-11-17T09:19:00.773Z,8.96
2023-11-17T09:20:00.724Z,9.03
2023-11-17T09:21:00.719Z,9.03
2023-11-17T09:22:00.890Z,9.01
2023-11-17T09:23:00.709Z,9.01
2023-11-17T09:24:00.704Z,9.11
2023-11-17T09:25:00.720Z,9.19
2023-11-17T09:26:00.707Z,9.12
2023-11-17T09:27:00.682Z,9.15
2023-11-17T09:28:00.735Z,9.01
2023-11-17T09:29:00.684Z,9.12
2023-11-17T09:30:00.771Z,9.03
2023-11-17T09:31:00.707Z,9.09
2023-11-17T09:32:00.659Z,9.08
2023-11-17T09:33:00.809Z,9.08
2023-11-17T09:34:00.774Z,9.12
2023-11-17T09:35:00.709Z,9.26
2023-11-17T09:36:00.652Z,9.41
2023-11-17T09:37:00.669Z,9.44
2023-11-17T09:38:01.380Z,9.36
2023-11-17T09:39:00.671Z,9.54
2023-11-17T09:40:00.679Z,9.40
2023-11-17T09:41:00.602Z,9.41
2023-11-17T09:42:00.631Z,9.42
2023-11-17T09:43:00.630Z,9.54
2023-11-17T09:44:00.668Z,9.47
2023-11-17T09:45:00.573Z,9.45
2023-11-17T09:46:00.832Z,9.44
2023-11-17T09:47:00.597Z,9.41
2023-11-17T09:48:00.719Z,9.44
2023-11-17T09:49:00.686Z,9.44
2023-11-17T09:50:00.602Z,9.52
2023-11-17T09:51:00.608Z,9.55
2023-11-17T09:52:00.590Z,9.63
2023-11-17T09:53:00.574Z,9.52
2023-11-17T09:54:00.565Z,9.57
2023-11-17T09:55:00.609Z,9.75
2023-11-17T09:56:00.528Z,9.60
2023-11-17T09:57:00.867Z,9.66
2023-11-17T09:58:00.550Z,9.73
2023-11-17T09:59:00.512Z,9.72
2023-11-17T10:00:00.523Z,9.81
2023-11-17T10:01:00.598Z,9.85
2023-11-17T10:02:00.614Z,9.88
2023-11-17T10:03:01.592Z,9.99
2023-11-17T10:04:00.749Z,10.06
2023-11-17T10:05:00.576Z,10.02
2023-11-17T10:06:00.477Z,10.17
2023-11-17T10:07:00.510Z,10.36
2023-11-17T10:08:00.469Z,10.28
2023-11-17T10:09:00.476Z,10.30
2023-11-17T10:10:00.577Z,10.41
2023-11-17T10:11:00.464Z,10.34
2023-11-17T10:12:00.476Z,10.60
2023-11-17T10:13:00.452Z,10.80
2023-11-17T10:14:00.468Z,10.80
2023-11-17T10:15:00.494Z,10.98
2023-11-17T10:16:00.621Z,10.78
2023-11-17T10:17:00.596Z,10.93
2023-11-17T10:18:00.613Z,11.08
2023-11-17T10:19:00.449Z,11.27
2023-11-17T10:20:00.510Z,11.22
2023-11-17T10:21:00.430Z,11.28
2023-11-17T10:22:00.467Z,11.61
2023-11-17T10:23:00.398Z,11.54
2023-11-17T10:24:00.407Z,11.71
2023-11-17T10:25:00.454Z,11.69
2023-11-17T10:26:00.397Z,11.74
2023-11-17T10:27:00.414Z,11.69
2023-11-17T10:28:00.417Z,11.69
2023-11-17T10:29:00.398Z,11.52
2023-11-17T10:30:00.548Z,11.51
2023-11-17T10:31:00.394Z,11.46
2023-11-17T10:32:15.983Z,11.64
2023-11-17T10:33:14.291Z,11.73
2023-11-17T10:34:02.689Z,11.76
2023-11-17T10:35:00.403Z,11.73
2023-11-17T10:36:00.382Z,11.77
2023-11-17T10:37:00.395Z,11.74
2023-11-17T10:38:00.367Z,11.52
2023-11-17T10:39:00.334Z,11.40
2023-11-17T10:40:05.903Z,11.16
2023-11-17T10:41:02.341Z,11.15
2023-11-17T10:42:00.321Z,11.09
2023-11-17T10:43:00.287Z,10.95
2023-11-17T10:44:00.396Z,10.67
2023-11-17T10:45:00.284Z,10.65
2023-11-17T10:46:00.334Z,10.61
2023-11-17T10:47:00.364Z,10.49
2023-11-17T10:48:00.318Z,10.41
2023-11-17T10:49:00.586Z,10.35
2023-11-17T10:50:00.363Z,10.12
2023-11-17T10:51:00.290Z,10.14
2023-11-17T10:52:00.372Z,10.16
2023-11-17T10:53:00.243Z,10.14
2023-11-17T10:54:00.248Z,10.18
2023-11-17T10:55:00.370Z,10.16
2023-11-17T10:56:00.248Z,10.05
